Time;durP1;ratioP1;P1;durP2;ratioP2;P2;SDS_P1;SDS_P2;PMS_P1;PMS_P2;Temp;Humidity;BMP_temperature;BMP_pressure;BME280_temperature;BME280_humidity;BME280_pressure;Samples;Min_cycle;Max_cycle;Signal;HPM_P1;HPM_P2
2022/10/18 00:02:20;;;;;;;;;;;15.30;99.90;;;;;;5054132;28;19924;-87
2022/10/18 00:04:45;;;;;;;;;;;15.20;99.90;;;;;;5052908;28;19980;-88
2022/10/18 00:07:11;;;;;;;;;;;15.20;99.90;;;;;;5051544;28;19913;-87
2022/10/18 00:09:37;;;;;;;;;;;15.20;99.90;;;;;;5047195;28;19959;-87
2022/10/18 00:12:04;;;;;;;;;;;15.20;99.90;;;;;;5047405;28;19917;-87
2022/10/18 00:14:32;;;;;;;;;;;15.20;99.90;;;;;;5047396;28;20372;-89
2022/10/18 00:16:58;;;;;;;;;;;15.20;99.90;;;;;;5050463;28;19913;-86
2022/10/18 00:19:24;;;;;;;;;;;15.10;99.90;;;;;;5033312;28;19909;-89
2022/10/18 00:21:52;;;;;;;;;;;15.00;99.90;;;;;;5049368;28;19956;-88
2022/10/18 00:24:18;;;;;;;;;;;15.00;99.90;;;;;;5036665;28;19967;-87
2022/10/18 00:26:44;;;;;;;;;;;14.90;99.90;;;;;;5058011;28;19922;-88
2022/10/18 00:29:12;;;;;;;;;;;14.80;99.90;;;;;;5052053;28;20006;-89
2022/10/18 00:31:38;;;;;;;;;;;14.70;99.90;;;;;;5048826;28;19919;-89
2022/10/18 00:34:05;;;;;;;;;;;14.60;99.90;;;;;;5035610;28;19932;-85
2022/10/18 00:36:33;;;;;;;;;;;14.50;99.90;;;;;;5060658;28;19909;-86
2022/10/18 00:38:59;;;;;;;;;;;14.50;99.90;;;;;;5060162;28;19897;-86
2022/10/18 00:41:26;;;;;;;;;;;14.40;99.90;;;;;;5060052;28;19913;-87
2022/10/18 00:43:57;;;;;;;;;;;14.30;99.90;;;;;;5060140;28;19901;-84
2022/10/18 00:46:27;;;;;;;;;;;14.30;99.90;;;;;;5057680;28;20099;-88
2022/10/18 00:48:54;;;;;;;;;;;14.20;99.90;;;;;;5039514;28;19924;-86
2022/10/18 00:51:26;;;;;;;;;;;14.20;99.90;;;;;;5060255;28;19917;-85
2022/10/18 00:53:52;;;;;;;;;;;14.10;99.90;;;;;;5043428;28;19908;-85
2022/10/18 00:56:18;;;;;;;;;;;14.10;99.90;;;;;;5059043;28;19901;-88
2022/10/18 00:58:45;;;;;;;;;;;14.10;99.90;;;;;;5047424;28;19913;-87
2022/10/18 01:01:10;;;;;;;;;;;14.10;99.90;;;;;;5046639;28;19932;-89
2022/10/18 01:03:36;;;;;;;;;;;14.00;99.90;;;;;;5051787;28;19905;-86
2022/10/18 01:06:02;;;;;;;;;;;14.00;99.90;;;;;;5042673;28;19948;-85
2022/10/18 01:08:39;;;;;;;;;;;14.00;99.90;;;;;;5058949;28;19908;-87
2022/10/18 01:11:11;;;;;;;;;;;13.90;99.90;;;;;;5042850;28;19932;-85
2022/10/18 01:13:37;;;;;;;;;;;13.90;99.90;;;;;;5060066;28;19925;-85
2022/10/18 01:16:15;;;;;;;;;;;13.80;99.90;;;;;;5059366;28;19901;-85
2022/10/18 01:18:53;;;;;;;;;;;13.70;99.90;;;;;;5051854;28;19928;-87
2022/10/18 01:21:34;;;;;;;;;;;13.70;99.90;;;;;;5053907;28;19921;-88
2022/10/18 01:24:09;;;;;;;;;;;13.60;99.90;;;;;;5058111;28;19933;-87
2022/10/18 01:26:50;;;;;;;;;;;13.50;99.90;;;;;;5058244;28;19942;-87
2022/10/18 01:29:24;;;;;;;;;;;13.50;99.90;;;;;;5051928;28;19988;-86
2022/10/18 01:31:58;;;;;;;;;;;13.40;99.90;;;;;;5049169;28;19913;-86
2022/10/18 01:34:27;;;;;;;;;;;13.40;99.90;;;;;;5053690;28;19921;-86
2022/10/18 01:36:54;;;;;;;;;;;13.30;99.90;;;;;;5041727;28;19925;-85
2022/10/18 01:39:28;;;;;;;;;;;13.30;99.90;;;;;;5052199;28;20024;-88
2022/10/18 01:41:55;;;;;;;;;;;13.20;99.90;;;;;;5032154;28;19950;-87
2022/10/18 01:44:23;;;;;;;;;;;13.20;99.90;;;;;;5047597;28;19959;-88
2022/10/18 01:46:50;;;;;;;;;;;13.10;99.90;;;;;;5046353;28;19913;-88
2022/10/18 01:49:16;;;;;;;;;;;13.10;99.90;;;;;;5045524;28;19913;-87
2022/10/18 01:51:42;;;;;;;;;;;13.10;99.90;;;;;;5051386;28;19931;-85
2022/10/18 01:54:08;;;;;;;;;;;13.00;99.90;;;;;;5058692;28;19905;-84
2022/10/18 01:56:41;;;;;;;;;;;13.00;99.90;;;;;;5059219;28;19952;-85
2022/10/18 01:59:10;;;;;;;;;;;13.00;99.90;;;;;;5056672;28;19963;-86
2022/10/18 02:01:45;;;;;;;;;;;12.90;99.90;;;;;;5046124;28;20352;-88
2022/10/18 02:04:31;;;;;;;;;;;12.80;99.90;;;;;;5045136;28;19915;-89
2022/10/18 02:07:02;;;;;;;;;;;12.80;99.90;;;;;;5037681;28;19904;-85
2022/10/18 02:09:32;;;;;;;;;;;12.80;99.90;;;;;;5054184;28;19992;-88
2022/10/18 02:11:59;;;;;;;;;;;12.80;99.90;;;;;;5054614;28;19908;-87
2022/10/18 02:14:25;;;;;;;;;;;12.80;99.90;;;;;;5054205;28;19977;-86
2022/10/18 02:16:53;;;;;;;;;;;12.80;99.90;;;;;;5057773;28;19901;-85
2022/10/18 02:19:32;;;;;;;;;;;12.80;99.90;;;;;;5047931;28;20075;-90
2022/10/18 02:21:58;;;;;;;;;;;12.70;99.90;;;;;;5045634;28;19921;-88
2022/10/18 02:24:26;;;;;;;;;;;12.70;99.90;;;;;;5044337;28;19909;-87
2022/10/18 02:26:52;;;;;;;;;;;12.70;99.90;;;;;;5029904;28;19992;-88
2022/10/18 02:29:17;;;;;;;;;;;12.60;99.90;;;;;;5055415;28;19917;-86
2022/10/18 02:31:44;;;;;;;;;;;12.60;99.90;;;;;;5055207;28;19906;-86
2022/10/18 02:34:42;;;;;;;;;;;12.50;99.90;;;;;;5054918;28;19904;-85
2022/10/18 02:37:09;;;;;;;;;;;12.50;99.90;;;;;;4998129;28;19944;-88
2022/10/18 02:39:36;;;;;;;;;;;12.50;99.90;;;;;;5050053;28;19913;-85
2022/10/18 02:42:06;;;;;;;;;;;12.40;99.90;;;;;;5057892;28;19963;-85
2022/10/18 02:44:33;;;;;;;;;;;12.40;99.90;;;;;;5057986;28;19901;-85
2022/10/18 02:46:58;;;;;;;;;;;12.30;99.90;;;;;;5057885;28;19939;-84
2022/10/18 02:49:24;;;;;;;;;;;12.30;99.90;;;;;;5058183;28;19901;-87
2022/10/18 02:51:50;;;;;;;;;;;12.30;99.90;;;;;;5055967;28;19897;-86
2022/10/18 02:54:16;;;;;;;;;;;12.30;99.90;;;;;;5039921;28;19956;-87
2022/10/18 02:56:41;;;;;;;;;;;12.30;99.90;;;;;;5053321;28;19977;-88
2022/10/18 02:59:07;;;;;;;;;;;12.30;99.90;;;;;;5051449;28;19913;-87
2022/10/18 03:01:33;;;;;;;;;;;12.20;99.90;;;;;;5048233;28;19944;-89
2022/10/18 03:03:59;;;;;;;;;;;12.20;99.90;;;;;;5052657;28;19905;-85
2022/10/18 03:06:25;;;;;;;;;;;12.20;99.90;;;;;;5057550;28;19928;-86
2022/10/18 03:08:50;;;;;;;;;;;12.10;99.90;;;;;;5058013;28;19932;-86
2022/10/18 03:11:16;;;;;;;;;;;12.10;99.90;;;;;;5057316;28;19917;-85
2022/10/18 03:13:42;;;;;;;;;;;12.10;99.90;;;;;;5055855;28;19973;-86
2022/10/18 03:16:07;;;;;;;;;;;12.10;99.90;;;;;;5040844;28;19909;-87
2022/10/18 03:18:33;;;;;;;;;;;12.10;99.90;;;;;;5057382;28;19908;-86
2022/10/18 03:21:02;;;;;;;;;;;12.00;99.90;;;;;;5057599;28;19905;-86
2022/10/18 03:23:28;;;;;;;;;;;12.00;99.90;;;;;;5040967;28;19917;-85
2022/10/18 03:25:54;;;;;;;;;;;12.00;99.90;;;;;;5057242;28;19936;-85
2022/10/18 03:28:20;;;;;;;;;;;12.00;99.90;;;;;;5056982;28;19906;-87
2022/10/18 03:30:46;;;;;;;;;;;12.00;99.90;;;;;;5056415;28;19909;-87
2022/10/18 03:33:11;;;;;;;;;;;11.90;99.90;;;;;;5058898;28;19927;-87
2022/10/18 03:35:37;;;;;;;;;;;12.00;99.90;;;;;;5059357;28;19936;-85
2022/10/18 03:38:03;;;;;;;;;;;11.90;99.90;;;;;;5057589;28;19902;-88
2022/10/18 03:40:29;;;;;;;;;;;11.90;99.90;;;;;;5058532;28;19928;-86
2022/10/18 03:42:54;;;;;;;;;;;11.90;99.90;;;;;;5058736;28;19968;-86
2022/10/18 03:45:20;;;;;;;;;;;11.90;99.90;;;;;;5061023;28;19901;-85
2022/10/18 03:47:46;;;;;;;;;;;11.90;99.90;;;;;;5061087;28;19920;-85
2022/10/18 03:50:11;;;;;;;;;;;11.90;99.90;;;;;;5059010;28;19901;-88
2022/10/18 03:52:37;;;;;;;;;;;11.90;99.90;;;;;;5053948;28;19921;-87
2022/10/18 03:55:03;;;;;;;;;;;11.90;99.90;;;;;;5053168;28;19928;-86
2022/10/18 03:57:29;;;;;;;;;;;11.90;99.90;;;;;;5056457;28;19913;-85
2022/10/18 03:59:55;;;;;;;;;;;11.90;99.90;;;;;;5051192;28;19939;-87
2022/10/18 04:02:21;;;;;;;;;;;11.90;99.90;;;;;;5054092;28;19913;-87
2022/10/18 04:04:46;;;;;;;;;;;11.80;99.90;;;;;;5037894;28;19913;-87
2022/10/18 04:07:15;;;;;;;;;;;11.80;99.90;;;;;;5053533;28;19913;-87
2022/10/18 04:09:40;;;;;;;;;;;11.80;99.90;;;;;;5053311;28;19916;-89
2022/10/18 04:12:09;;;;;;;;;;;11.80;99.90;;;;;;5053203;28;19921;-88
2022/10/18 04:14:35;;;;;;;;;;;11.80;99.90;;;;;;5040182;28;19939;-86
2022/10/18 04:17:01;;;;;;;;;;;11.80;99.90;;;;;;5055719;28;19941;-88
2022/10/18 04:19:27;;;;;;;;;;;11.80;99.90;;;;;;5050962;28;19909;-88
2022/10/18 04:21:53;;;;;;;;;;;11.80;99.90;;;;;;5031893;28;19983;-90
2022/10/18 04:24:22;;;;;;;;;;;11.70;99.90;;;;;;5046118;28;19909;-86
2022/10/18 04:26:47;;;;;;;;;;;11.70;99.90;;;;;;5031232;28;19919;-89
2022/10/18 04:29:13;;;;;;;;;;;11.60;99.90;;;;;;5049563;28;19909;-88
2022/10/18 04:31:39;;;;;;;;;;;11.60;99.90;;;;;;5050088;28;19913;-89
2022/10/18 04:34:05;;;;;;;;;;;11.50;99.90;;;;;;5048566;28;19920;-90
2022/10/18 04:36:31;;;;;;;;;;;11.50;99.90;;;;;;5035148;23;19932;-80
2022/10/18 04:38:56;;;;;;;;;;;11.50;99.90;;;;;;5020739;28;20365;-80
2022/10/18 04:41:22;;;;;;;;;;;11.50;99.90;;;;;;5041228;28;19929;-79
2022/10/18 04:43:47;;;;;;;;;;;11.50;99.90;;;;;;5027971;28;19909;-79
2022/10/18 04:46:13;;;;;;;;;;;11.40;99.90;;;;;;5030960;28;19914;-80
2022/10/18 04:48:39;;;;;;;;;;;11.40;99.90;;;;;;5030824;28;19909;-79
2022/10/18 04:51:04;;;;;;;;;;;11.40;99.90;;;;;;5030989;28;19971;-78
2022/10/18 04:53:30;;;;;;;;;;;11.30;99.90;;;;;;5031780;28;19987;-77
2022/10/18 04:55:56;;;;;;;;;;;11.30;99.90;;;;;;5030433;28;19981;-79
2022/10/18 04:58:21;;;;;;;;;;;11.30;99.90;;;;;;5028170;28;19929;-78
2022/10/18 05:00:47;;;;;;;;;;;11.30;99.90;;;;;;5034693;28;19918;-77
2022/10/18 05:03:13;;;;;;;;;;;11.30;99.90;;;;;;5035990;28;19916;-78
2022/10/18 05:05:39;;;;;;;;;;;11.30;99.90;;;;;;5038205;28;19902;-79
2022/10/18 05:08:04;;;;;;;;;;;11.30;99.90;;;;;;5038579;28;19914;-79
2022/10/18 05:10:30;;;;;;;;;;;11.30;99.90;;;;;;5036977;28;19917;-78
2022/10/18 05:12:56;;;;;;;;;;;11.30;99.90;;;;;;5033321;28;19909;-79
2022/10/18 05:15:21;;;;;;;;;;;11.20;99.90;;;;;;5028102;28;20385;-80
2022/10/18 05:17:47;;;;;;;;;;;11.20;99.90;;;;;;5024768;28;19910;-82
2022/10/18 05:20:13;;;;;;;;;;;11.20;99.90;;;;;;5028386;28;19921;-80
2022/10/18 05:22:39;;;;;;;;;;;11.20;99.90;;;;;;5030734;28;19909;-79
2022/10/18 05:25:04;;;;;;;;;;;11.20;99.90;;;;;;5029955;28;19913;-81
2022/10/18 05:27:30;;;;;;;;;;;11.20;99.90;;;;;;5031154;28;19956;-80
2022/10/18 05:29:56;;;;;;;;;;;11.20;99.90;;;;;;5029255;28;19944;-80
2022/10/18 05:32:21;;;;;;;;;;;11.20;99.90;;;;;;5024158;28;19925;-79
2022/10/18 05:34:47;;;;;;;;;;;11.20;99.90;;;;;;5019898;28;19917;-81
2022/10/18 05:37:12;;;;;;;;;;;11.20;99.90;;;;;;5035368;28;20020;-80
2022/10/18 05:39:38;;;;;;;;;;;11.20;99.90;;;;;;5024086;28;19924;-81
2022/10/18 05:42:04;;;;;;;;;;;11.20;99.90;;;;;;5026297;28;20348;-81
2022/10/18 05:44:30;;;;;;;;;;;11.30;99.90;;;;;;5021267;28;19952;-80
2022/10/18 05:46:56;;;;;;;;;;;11.30;99.90;;;;;;5034010;28;19916;-79
2022/10/18 05:49:21;;;;;;;;;;;11.40;99.90;;;;;;5037616;28;19932;-79
2022/10/18 05:51:47;;;;;;;;;;;11.30;99.90;;;;;;5033243;28;19921;-80
2022/10/18 05:54:13;;;;;;;;;;;11.40;99.90;;;;;;5022094;28;19913;-80
2022/10/18 05:56:39;;;;;;;;;;;11.40;99.90;;;;;;5027014;28;19909;-80
2022/10/18 05:59:09;;;;;;;;;;;11.50;99.90;;;;;;5021634;28;20386;-80
2022/10/18 06:01:35;;;;;;;;;;;11.50;99.90;;;;;;5021764;28;19921;-79
2022/10/18 06:04:01;;;;;;;;;;;11.50;99.90;;;;;;5020971;28;19920;-80
2022/10/18 06:06:26;;;;;;;;;;;11.50;99.90;;;;;;5024200;28;19913;-80
2022/10/18 06:08:52;;;;;;;;;;;11.60;99.90;;;;;;5021047;28;19941;-79
2022/10/18 06:11:18;;;;;;;;;;;11.60;99.90;;;;;;5018947;28;19921;-80
2022/10/18 06:13:45;;;;;;;;;;;11.60;99.90;;;;;;5018626;28;19913;-80
2022/10/18 06:16:12;;;;;;;;;;;11.70;99.90;;;;;;5018851;28;19924;-80
2022/10/18 06:18:38;;;;;;;;;;;11.80;99.90;;;;;;5017210;28;19972;-80
2022/10/18 06:21:03;;;;;;;;;;;11.90;99.90;;;;;;5018926;28;19913;-80
2022/10/18 06:23:29;;;;;;;;;;;11.90;99.90;;;;;;5019426;28;20011;-81
2022/10/18 06:26:03;;;;;;;;;;;12.00;99.90;;;;;;5019633;28;19980;-79
2022/10/18 06:28:29;;;;;;;;;;;12.10;99.90;;;;;;5021099;28;19917;-79
2022/10/18 06:30:55;;;;;;;;;;;12.20;99.90;;;;;;5035932;28;20026;-80
2022/10/18 06:33:21;;;;;;;;;;;12.40;99.90;;;;;;5017735;28;19985;-82
2022/10/18 06:35:57;;;;;;;;;;;12.50;99.90;;;;;;5019809;28;19924;-80
2022/10/18 06:38:23;;;;;;;;;;;12.50;99.90;;;;;;5027368;28;19949;-80
2022/10/18 06:40:49;;;;;;;;;;;12.60;99.90;;;;;;5022514;28;19917;-81
2022/10/18 06:43:14;;;;;;;;;;;12.70;99.90;;;;;;5020434;28;19975;-82
2022/10/18 06:45:40;;;;;;;;;;;12.70;99.90;;;;;;5022405;28;19910;-80
2022/10/18 06:48:06;;;;;;;;;;;12.70;99.90;;;;;;5029800;28;19914;-80
2022/10/18 06:50:32;;;;;;;;;;;12.70;99.90;;;;;;5021003;28;20437;-79
2022/10/18 06:52:57;;;;;;;;;;;12.70;99.90;;;;;;5020339;28;19936;-79
2022/10/18 06:55:23;;;;;;;;;;;12.80;99.90;;;;;;5021193;28;19909;-80
2022/10/18 06:57:48;;;;;;;;;;;12.90;99.90;;;;;;5020218;28;19917;-80
2022/10/18 07:00:14;;;;;;;;;;;12.90;99.90;;;;;;5018781;28;19910;-82
2022/10/18 07:02:40;;;;;;;;;;;13.00;99.90;;;;;;5019265;28;19913;-79
2022/10/18 07:05:06;;;;;;;;;;;13.00;99.90;;;;;;5023587;28;20365;-78
2022/10/18 07:07:32;;;;;;;;;;;13.10;99.90;;;;;;5020858;28;19917;-80
2022/10/18 07:09:57;;;;;;;;;;;13.10;99.90;;;;;;5039369;28;19956;-80
2022/10/18 07:12:23;;;;;;;;;;;13.10;99.90;;;;;;5026469;28;19918;-78
2022/10/18 07:14:49;;;;;;;;;;;13.20;99.90;;;;;;5040626;28;20362;-80
2022/10/18 07:17:14;;;;;;;;;;;13.30;99.90;;;;;;5022705;28;19913;-78
2022/10/18 07:19:40;;;;;;;;;;;13.40;99.90;;;;;;5037803;28;19964;-79
2022/10/18 07:22:06;;;;;;;;;;;13.50;99.90;;;;;;5022973;28;19937;-81
2022/10/18 07:24:31;;;;;;;;;;;13.60;99.90;;;;;;5022788;28;19963;-80
2022/10/18 07:26:58;;;;;;;;;;;13.70;99.90;;;;;;5019979;28;20383;-80
2022/10/18 07:29:24;;;;;;;;;;;13.70;99.90;;;;;;5022508;28;20277;-81
2022/10/18 07:31:49;;;;;;;;;;;13.70;99.90;;;;;;5023682;28;20008;-79
2022/10/18 07:34:15;;;;;;;;;;;13.70;99.90;;;;;;5021810;28;19932;-78
2022/10/18 07:36:41;;;;;;;;;;;13.60;99.90;;;;;;5020778;28;19918;-80
2022/10/18 07:39:06;;;;;;;;;;;13.60;99.90;;;;;;5030502;28;19956;-79
2022/10/18 07:41:33;;;;;;;;;;;13.70;99.90;;;;;;5018969;28;19917;-79
2022/10/18 07:43:59;;;;;;;;;;;13.80;99.90;;;;;;5021856;28;19909;-79
2022/10/18 07:46:24;;;;;;;;;;;13.90;99.90;;;;;;5023633;28;20313;-79
2022/10/18 07:48:50;;;;;;;;;;;14.00;99.90;;;;;;5028853;28;19917;-79
2022/10/18 07:51:17;;;;;;;;;;;14.00;99.90;;;;;;5029407;28;19984;-81
2022/10/18 07:53:42;;;;;;;;;;;14.00;99.90;;;;;;5029635;28;19957;-80
2022/10/18 07:56:14;;;;;;;;;;;14.10;99.90;;;;;;5025927;28;19917;-80
2022/10/18 07:58:43;;;;;;;;;;;14.20;99.90;;;;;;5025396;28;19914;-79
2022/10/18 08:01:09;;;;;;;;;;;14.20;99.90;;;;;;5025374;28;20408;-80
2022/10/18 08:03:35;;;;;;;;;;;14.20;99.90;;;;;;5023909;28;19913;-80
2022/10/18 08:06:01;;;;;;;;;;;14.20;99.90;;;;;;5023127;28;19910;-80
2022/10/18 08:08:27;;;;;;;;;;;14.20;99.90;;;;;;5023170;28;19913;-79
2022/10/18 08:10:53;;;;;;;;;;;14.30;99.90;;;;;;5022951;28;19913;-81
2022/10/18 08:13:19;;;;;;;;;;;14.30;99.90;;;;;;5024386;28;19955;-80
2022/10/18 08:15:45;;;;;;;;;;;14.40;99.90;;;;;;5036563;28;19910;-79
2022/10/18 08:18:11;;;;;;;;;;;14.50;99.90;;;;;;5038006;28;19917;-80
2022/10/18 08:20:36;;;;;;;;;;;14.60;99.90;;;;;;5026429;28;19932;-79
2022/10/18 08:23:04;;;;;;;;;;;14.70;99.90;;;;;;5024270;28;19952;-80
2022/10/18 08:25:30;;;;;;;;;;;14.70;99.90;;;;;;5023252;28;19920;-81
2022/10/18 08:27:56;;;;;;;;;;;14.80;99.90;;;;;;5023960;28;19949;-80
2022/10/18 08:30:22;;;;;;;;;;;14.80;99.90;;;;;;5023800;28;19917;-79
2022/10/18 08:32:48;;;;;;;;;;;14.80;99.90;;;;;;5023716;28;20004;-80
2022/10/18 08:35:14;;;;;;;;;;;14.90;99.90;;;;;;5025445;28;20368;-79
2022/10/18 08:37:39;;;;;;;;;;;15.20;99.90;;;;;;5027691;28;19921;-78
2022/10/18 08:40:05;;;;;;;;;;;16.00;99.90;;;;;;5045158;28;20013;-79
2022/10/18 08:42:56;;;;;;;;;;;16.90;99.90;;;;;;5030881;28;19914;-80
2022/10/18 08:45:22;;;;;;;;;;;18.10;99.90;;;;;;5030789;28;20033;-78
2022/10/18 08:47:50;;;;;;;;;;;19.20;99.90;;;;;;5029469;28;19917;-80
2022/10/18 08:50:18;;;;;;;;;;;20.80;99.90;;;;;;5038278;28;19917;-79
2022/10/18 08:52:50;;;;;;;;;;;22.00;99.90;;;;;;5023137;28;20020;-79
2022/10/18 08:55:35;;;;;;;;;;;22.80;98.60;;;;;;5025744;28;19945;-79
2022/10/18 08:58:20;;;;;;;;;;;23.20;97.00;;;;;;5024363;28;20376;-82
2022/10/18 09:01:07;;;;;;;;;;;23.70;95.70;;;;;;5024535;28;20003;-79
2022/10/18 09:03:48;;;;;;;;;;;24.20;94.00;;;;;;4982725;28;20300;-80
2022/10/18 09:06:18;;;;;;;;;;;24.40;93.50;;;;;;5025872;28;19972;-78
2022/10/18 09:08:53;;;;;;;;;;;25.40;91.60;;;;;;5027677;28;19949;-80
2022/10/18 09:11:37;;;;;;;;;;;25.00;91.30;;;;;;5028681;28;19917;-79
2022/10/18 09:14:05;;;;;;;;;;;26.00;90.60;;;;;;5022612;28;20125;-79
2022/10/18 09:16:43;;;;;;;;;;;27.50;87.10;;;;;;5021719;28;19909;-79
2022/10/18 09:19:24;;;;;;;;;;;28.30;83.80;;;;;;5026077;28;20060;-80
2022/10/18 09:21:52;;;;;;;;;;;29.40;80.60;;;;;;5019953;28;20083;-80
2022/10/18 09:24:20;;;;;;;;;;;29.90;77.10;;;;;;5019882;28;19928;-80
2022/10/18 09:26:47;;;;;;;;;;;30.80;74.30;;;;;;5019567;28;19914;-80
2022/10/18 09:29:25;;;;;;;;;;;31.40;71.50;;;;;;5019147;28;20484;-80
2022/10/18 09:31:50;;;;;;;;;;;30.50;71.00;;;;;;5018583;28;20381;-79
2022/10/18 09:34:19;;;;;;;;;;;30.50;70.70;;;;;;5020316;28;19968;-80
2022/10/18 09:36:45;;;;;;;;;;;30.40;70.00;;;;;;5021121;28;20360;-79
2022/10/18 09:39:13;;;;;;;;;;;30.80;69.40;;;;;;5022435;28;19963;-78
2022/10/18 09:41:41;;;;;;;;;;;31.70;67.70;;;;;;5020803;28;19921;-80
2022/10/18 09:44:17;;;;;;;;;;;31.80;67.30;;;;;;5021149;28;20004;-80
2022/10/18 09:46:50;;;;;;;;;;;31.20;66.60;;;;;;5017949;28;20240;-81
2022/10/18 09:49:20;;;;;;;;;;;31.60;66.60;;;;;;5021025;28;19914;-81
2022/10/18 09:51:47;;;;;;;;;;;32.20;65.60;;;;;;5036617;28;19902;-79
2022/10/18 09:54:19;;;;;;;;;;;32.00;65.10;;;;;;5038073;28;19906;-78
2022/10/18 09:56:49;;;;;;;;;;;31.60;65.30;;;;;;5026100;28;19937;-80
2022/10/18 09:59:35;;;;;;;;;;;31.90;65.30;;;;;;5019771;28;19926;-80
2022/10/18 10:02:01;;;;;;;;;;;32.80;64.30;;;;;;5008805;28;19936;-81
2022/10/18 10:04:27;;;;;;;;;;;33.30;62.70;;;;;;5019274;28;19909;-82
2022/10/18 10:06:53;;;;;;;;;;;32.80;62.50;;;;;;5018891;28;20007;-79
2022/10/18 10:09:39;;;;;;;;;;;32.20;63.30;;;;;;5018331;28;19909;-81
2022/10/18 10:12:22;;;;;;;;;;;31.80;63.20;;;;;;5036084;28;19997;-80
2022/10/18 10:14:48;;;;;;;;;;;31.50;63.40;;;;;;5029817;28;19914;-82
2022/10/18 10:17:20;;;;;;;;;;;31.70;63.40;;;;;;5021102;28;20016;-80
2022/10/18 10:20:18;;;;;;;;;;;32.20;63.10;;;;;;5021166;28;19914;-80
2022/10/18 10:22:46;;;;;;;;;;;32.90;61.80;;;;;;4987961;28;19929;-81
2022/10/18 10:25:24;;;;;;;;;;;33.10;61.80;;;;;;5020357;28;20060;-81
2022/10/18 10:27:50;;;;;;;;;;;33.30;61.30;;;;;;5018884;28;19953;-81
2022/10/18 10:30:24;;;;;;;;;;;33.60;60.70;;;;;;5019434;28;20312;-81
2022/10/18 10:32:50;;;;;;;;;;;33.10;60.60;;;;;;5021945;28;19917;-80
2022/10/18 10:35:23;;;;;;;;;;;32.30;61.40;;;;;;5029348;28;19910;-80
2022/10/18 10:37:53;;;;;;;;;;;32.30;61.70;;;;;;5090330;22;19917;-88
2022/10/18 10:40:33;;;;;;;;;;;33.10;61.20;;;;;;5054632;28;19921;-88
2022/10/18 10:43:13;;;;;;;;;;;33.50;60.10;;;;;;5051082;28;19917;-89
2022/10/18 10:45:58;;;;;;;;;;;33.40;59.70;;;;;;5053080;28;19917;-88
2022/10/18 10:48:31;;;;;;;;;;;33.20;60.20;;;;;;5071545;28;19916;-88
2022/10/18 10:51:35;;;;;;;;;;;33.90;60.10;;;;;;5075885;28;19921;-88
2022/10/18 10:54:13;;;;;;;;;;;;;;;;;;;;;
2022/10/18 10:57:18;;;;;;;;;;;34.40;58.80;;;;;;5076341;28;19901;-90
2022/10/18 10:59:55;;;;;;;;;;;34.50;58.30;;;;;;5076621;28;19917;-88
2022/10/18 11:02:48;;;;;;;;;;;34.50;58.10;;;;;;5075656;28;19943;-87
2022/10/18 11:05:56;;;;;;;;;;;;;;;;;;;;;
2022/10/18 11:08:37;;;;;;;;;;;33.90;58.10;;;;;;5067603;28;19905;-88
2022/10/18 11:11:26;;;;;;;;;;;33.90;58.60;;;;;;5058314;28;20341;-87
2022/10/18 11:14:10;;;;;;;;;;;34.70;58.20;;;;;;5075708;28;19986;-88
2022/10/18 11:19:53;;;;;;;;;;;35.80;56.70;;;;;;5015756;28;19917;-86
2022/10/18 11:23:23;;;;;;;;;;;35.70;56.40;;;;;;4948921;29;19926;-88
2022/10/18 11:26:26;;;;;;;;;;;35.40;56.60;;;;;;4954193;28;19966;-90
2022/10/18 11:29:28;;;;;;;;;;;36.60;55.40;;;;;;4991923;28;19924;-90
2022/10/18 11:31:54;;;;;;;;;;;36.70;55.30;;;;;;4988436;23;854241;-81
2022/10/18 11:34:20;;;;;;;;;;;37.10;54.50;;;;;;5019383;28;19921;-82
2022/10/18 11:37:06;;;;;;;;;;;36.90;54.40;;;;;;5019788;28;20151;-82
2022/10/18 11:39:37;;;;;;;;;;;37.20;54.50;;;;;;5019319;28;19937;-80
2022/10/18 11:42:18;;;;;;;;;;;37.10;54.00;;;;;;5019027;28;19941;-83
2022/10/18 11:44:49;;;;;;;;;;;37.80;53.50;;;;;;5021244;28;19920;-81
2022/10/18 11:47:30;;;;;;;;;;;38.10;52.90;;;;;;5020518;28;19914;-83
2022/10/18 11:49:59;;;;;;;;;;;38.30;52.60;;;;;;5020273;28;20241;-81
2022/10/18 11:52:24;;;;;;;;;;;37.70;52.70;;;;;;5020978;28;19910;-81
2022/10/18 11:55:13;;;;;;;;;;;37.00;52.80;;;;;;5007159;28;19936;-81
2022/10/18 11:57:47;;;;;;;;;;;36.90;53.30;;;;;;4987320;28;19964;-80
2022/10/18 12:00:31;;;;;;;;;;;36.90;53.20;;;;;;5025468;28;19940;-79
2022/10/18 12:02:57;;;;;;;;;;;36.90;53.90;;;;;;5035011;28;19902;-79
2022/10/18 12:05:23;;;;;;;;;;;37.00;53.20;;;;;;5036775;28;19960;-80
2022/10/18 12:07:55;;;;;;;;;;;36.90;52.90;;;;;;5038163;28;19977;-79
2022/10/18 12:10:22;;;;;;;;;;;36.70;53.20;;;;;;5037380;28;19992;-81
2022/10/18 12:12:50;;;;;;;;;;;36.20;53.80;;;;;;5038338;28;20017;-81
2022/10/18 12:15:21;;;;;;;;;;;36.80;53.50;;;;;;5029086;28;19918;-80
2022/10/18 12:17:51;;;;;;;;;;;37.30;53.00;;;;;;5006905;28;19921;-82
2022/10/18 12:20:30;;;;;;;;;;;37.40;52.60;;;;;;5023478;28;20431;-80
2022/10/18 12:23:04;;;;;;;;;;;36.70;53.00;;;;;;5021804;28;20278;-81
2022/10/18 12:25:32;;;;;;;;;;;35.20;53.90;;;;;;5023367;28;19945;-79
2022/10/18 12:28:01;;;;;;;;;;;33.00;55.90;;;;;;5028567;28;20380;-80
2022/10/18 12:30:59;;;;;;;;;;;31.30;57.80;;;;;;5027996;28;19978;-81
2022/10/18 12:33:27;;;;;;;;;;;29.60;60.20;;;;;;5002090;28;20289;-80
2022/10/18 12:36:13;;;;;;;;;;;28.20;62.40;;;;;;5026956;28;19981;-81
2022/10/18 12:38:41;;;;;;;;;;;27.10;64.40;;;;;;5025809;28;20344;-80
2022/10/18 12:41:11;;;;;;;;;;;26.40;66.10;;;;;;5026563;28;19923;-81
2022/10/18 12:43:36;;;;;;;;;;;25.90;67.50;;;;;;5034991;28;19918;-81
2022/10/18 12:46:03;;;;;;;;;;;25.20;69.30;;;;;;5028339;28;19909;-81
2022/10/18 12:48:31;;;;;;;;;;;24.70;70.90;;;;;;5024765;28;19925;-80
2022/10/18 12:50:59;;;;;;;;;;;24.40;72.10;;;;;;5022008;28;20012;-80
2022/10/18 12:53:25;;;;;;;;;;;24.10;74.00;;;;;;5021267;28;19913;-80
2022/10/18 12:55:52;;;;;;;;;;;23.70;75.40;;;;;;5025264;28;19917;-82
2022/10/18 12:58:21;;;;;;;;;;;23.40;76.50;;;;;;5025384;28;19918;-82
2022/10/18 13:00:47;;;;;;;;;;;23.10;77.70;;;;;;5004686;28;19924;-81
2022/10/18 13:03:15;;;;;;;;;;;23.00;78.20;;;;;;5026000;28;19928;-82
2022/10/18 13:05:53;;;;;;;;;;;22.70;79.10;;;;;;5027921;28;19909;-81
2022/10/18 13:08:28;;;;;;;;;;;22.50;80.20;;;;;;5014930;28;19953;-80
2022/10/18 13:11:16;;;;;;;;;;;22.50;80.80;;;;;;5033692;28;19913;-80
2022/10/18 13:13:42;;;;;;;;;;;22.40;81.20;;;;;;5029031;28;19913;-79
2022/10/18 13:16:12;;;;;;;;;;;22.30;82.30;;;;;;5023539;28;19914;-79
2022/10/18 13:18:44;;;;;;;;;;;22.30;82.50;;;;;;5030311;28;19922;-83
2022/10/18 13:21:12;;;;;;;;;;;22.30;82.30;;;;;;5014176;28;20011;-79
2022/10/18 13:23:44;;;;;;;;;;;22.20;82.90;;;;;;5029614;28;19909;-81
2022/10/18 13:26:22;;;;;;;;;;;22.20;83.60;;;;;;5021723;28;19914;-80
2022/10/18 13:28:50;;;;;;;;;;;22.20;84.30;;;;;;5004222;28;19977;-80
2022/10/18 13:31:29;;;;;;;;;;;22.10;85.00;;;;;;5020342;28;20439;-81
2022/10/18 13:33:54;;;;;;;;;;;22.00;85.60;;;;;;5021796;28;20400;-80
2022/10/18 13:36:24;;;;;;;;;;;21.90;86.40;;;;;;5006716;28;19910;-81
2022/10/18 13:38:54;;;;;;;;;;;21.80;87.60;;;;;;5003505;28;19914;-81
2022/10/18 13:41:24;;;;;;;;;;;21.80;87.90;;;;;;5019723;28;20020;-81
2022/10/18 13:43:55;;;;;;;;;;;21.70;88.30;;;;;;5020964;28;19913;-80
2022/10/18 13:46:21;;;;;;;;;;;21.60;89.50;;;;;;5026819;28;19941;-80
2022/10/18 13:48:51;;;;;;;;;;;21.50;90.00;;;;;;5035459;28;19909;-82
2022/10/18 13:51:23;;;;;;;;;;;21.50;90.40;;;;;;5036215;28;19928;-80
2022/10/18 13:53:58;;;;;;;;;;;21.50;90.50;;;;;;5026720;28;19968;-82
2022/10/18 13:56:30;;;;;;;;;;;21.50;90.50;;;;;;5027956;28;19917;-80
2022/10/18 13:58:55;;;;;;;;;;;21.50;90.50;;;;;;5036690;28;19913;-79
2022/10/18 14:01:32;;;;;;;;;;;21.50;90.70;;;;;;5036621;28;19981;-79
2022/10/18 14:04:15;;;;;;;;;;;21.50;90.90;;;;;;5002897;28;19925;-79
2022/10/18 14:06:42;;;;;;;;;;;21.40;91.40;;;;;;5022471;28;19910;-80
2022/10/18 14:09:17;;;;;;;;;;;21.30;91.90;;;;;;4986174;28;19945;-80
2022/10/18 14:11:51;;;;;;;;;;;21.10;92.30;;;;;;5020301;28;20369;-80
2022/10/18 14:14:33;;;;;;;;;;;21.10;92.70;;;;;;5019394;28;19921;-80
2022/10/18 14:17:14;;;;;;;;;;;21.00;93.10;;;;;;5001821;28;19913;-79
2022/10/18 14:19:41;;;;;;;;;;;20.90;93.90;;;;;;5020093;28;19958;-80
2022/10/18 14:22:19;;;;;;;;;;;20.80;94.50;;;;;;5028118;28;20358;-79
2022/10/18 14:25:08;;;;;;;;;;;20.70;95.20;;;;;;5029135;28;19982;-80
2022/10/18 14:27:34;;;;;;;;;;;20.60;95.90;;;;;;5004404;28;19985;-80
2022/10/18 14:30:26;;;;;;;;;;;20.60;96.50;;;;;;5030273;28;19921;-79
2022/10/18 14:32:55;;;;;;;;;;;20.50;96.80;;;;;;4999765;28;19918;-80
2022/10/18 14:35:22;;;;;;;;;;;20.50;97.40;;;;;;5019762;28;19909;-80
2022/10/18 14:37:49;;;;;;;;;;;20.50;97.40;;;;;;5019256;28;20036;-81
2022/10/18 14:40:25;;;;;;;;;;;20.50;99.00;;;;;;5023626;28;19909;-81